sensor_id;sensor_type;location;lat;lon;timestamp;pressure;altitude;pressure_sealevel;temperature;humidity
23635;BME280;11994;51.038;16.974;2023-07-28T00:01:24;99177.80;;;17.82;77.48
23635;BME280;11994;51.038;16.974;2023-07-28T00:03:50;99177.21;;;17.82;77.32
23635;BME280;11994;51.038;16.974;2023-07-28T00:06:16;99178.66;;;17.82;77.56
23635;BME280;11994;51.038;16.974;2023-07-28T00:08:41;99172.02;;;17.86;77.75
23635;BME280;11994;51.038;16.974;2023-07-28T00:11:11;99170.58;;;17.91;77.90
23635;BME280;11994;51.038;16.974;2023-07-28T00:13:40;99166.51;;;17.94;77.95
23635;BME280;11994;51.038;16.974;2023-07-28T00:16:06;99166.92;;;17.95;78.06
23635;BME280;11994;51.038;16.974;2023-07-28T00:18:32;99169.82;;;17.97;78.10
23635;BME280;11994;51.038;16.974;2023-07-28T00:20:57;99168.19;;;18.00;78.18
23635;BME280;11994;51.038;16.974;2023-07-28T00:23:23;99161.92;;;17.98;77.86
23635;BME280;11994;51.038;16.974;2023-07-28T00:25:48;99161.59;;;17.93;77.82
23635;BME280;11994;51.038;16.974;2023-07-28T00:28:13;99160.24;;;17.92;77.85
23635;BME280;11994;51.038;16.974;2023-07-28T00:30:39;99158.84;;;17.95;78.04
23635;BME280;11994;51.038;16.974;2023-07-28T00:33:05;99155.84;;;17.97;78.12
23635;BME280;11994;51.038;16.974;2023-07-28T00:35:30;99156.52;;;18.00;78.29
23635;BME280;11994;51.038;16.974;2023-07-28T00:37:55;99151.00;;;17.98;78.11
23635;BME280;11994;51.038;16.974;2023-07-28T00:40:24;99148.88;;;17.95;78.19
23635;BME280;11994;51.038;16.974;2023-07-28T00:42:49;99149.60;;;17.95;78.04
23635;BME280;11994;51.038;16.974;2023-07-28T00:45:15;99138.13;;;17.92;78.04
23635;BME280;11994;51.038;16.974;2023-07-28T00:47:40;99137.31;;;17.91;78.10
23635;BME280;11994;51.038;16.974;2023-07-28T00:50:08;99136.85;;;17.90;78.28
23635;BME280;11994;51.038;16.974;2023-07-28T00:52:34;99135.82;;;17.90;78.29
23635;BME280;11994;51.038;16.974;2023-07-28T00:55:00;99133.14;;;17.88;78.35
23635;BME280;11994;51.038;16.974;2023-07-28T00:57:25;99132.39;;;17.86;78.49
23635;BME280;11994;51.038;16.974;2023-07-28T00:59:51;99128.56;;;17.85;78.50
23635;BME280;11994;51.038;16.974;2023-07-28T01:02:16;99130.43;;;17.88;78.65
23635;BME280;11994;51.038;16.974;2023-07-28T01:04:42;99125.27;;;17.91;78.59
23635;BME280;11994;51.038;16.974;2023-07-28T01:09:40;99126.35;;;17.93;78.88
23635;BME280;11994;51.038;16.974;2023-07-28T01:12:08;99122.52;;;17.95;78.66
23635;BME280;11994;51.038;16.974;2023-07-28T01:14:34;99118.64;;;17.95;78.61
23635;BME280;11994;51.038;16.974;2023-07-28T01:17:00;99121.80;;;17.95;78.60
23635;BME280;11994;51.038;16.974;2023-07-28T01:19:25;99111.91;;;17.97;78.63
23635;BME280;11994;51.038;16.974;2023-07-28T01:22:02;99113.61;;;17.98;78.58
23635;BME280;11994;51.038;16.974;2023-07-28T01:24:44;99107.48;;;18.00;78.63
23635;BME280;11994;51.038;16.974;2023-07-28T01:27:11;99110.80;;;18.03;78.73
23635;BME280;11994;51.038;16.974;2023-07-28T01:29:37;99107.86;;;18.07;78.89
23635;BME280;11994;51.038;16.974;2023-07-28T01:32:03;99110.05;;;18.08;78.86
23635;BME280;11994;51.038;16.974;2023-07-28T01:34:29;99107.92;;;18.08;78.81
23635;BME280;11994;51.038;16.974;2023-07-28T01:36:54;99103.60;;;18.07;78.64
23635;BME280;11994;51.038;16.974;2023-07-28T01:39:20;99104.00;;;18.06;78.71
23635;BME280;11994;51.038;16.974;2023-07-28T01:41:45;99101.08;;;18.05;78.70
23635;BME280;11994;51.038;16.974;2023-07-28T01:44:11;99092.92;;;18.08;78.66
23635;BME280;11994;51.038;16.974;2023-07-28T01:46:36;99093.92;;;18.08;78.63
23635;BME280;11994;51.038;16.974;2023-07-28T01:49:01;99088.66;;;18.10;78.65
23635;BME280;11994;51.038;16.974;2023-07-28T01:51:27;99082.44;;;18.11;78.64
23635;BME280;11994;51.038;16.974;2023-07-28T01:53:52;99080.02;;;18.10;78.51
23635;BME280;11994;51.038;16.974;2023-07-28T01:56:17;99079.16;;;18.10;78.58
23635;BME280;11994;51.038;16.974;2023-07-28T01:58:43;99074.66;;;18.11;78.74
23635;BME280;11994;51.038;16.974;2023-07-28T02:01:08;99074.65;;;18.11;78.63
23635;BME280;11994;51.038;16.974;2023-07-28T02:03:33;99081.88;;;18.11;78.51
23635;BME280;11994;51.038;16.974;2023-07-28T02:06:00;99084.13;;;18.12;78.64
23635;BME280;11994;51.038;16.974;2023-07-28T02:08:25;99081.23;;;18.13;78.62
23635;BME280;11994;51.038;16.974;2023-07-28T02:10:53;99083.37;;;18.13;78.59
23635;BME280;11994;51.038;16.974;2023-07-28T02:13:18;99084.17;;;18.14;78.75
23635;BME280;11994;51.038;16.974;2023-07-28T02:15:44;99084.58;;;18.18;78.88
23635;BME280;11994;51.038;16.974;2023-07-28T02:18:09;99083.34;;;18.20;78.88
23635;BME280;11994;51.038;16.974;2023-07-28T02:20:34;99082.94;;;18.21;79.00
23635;BME280;11994;51.038;16.974;2023-07-28T02:23:01;99080.33;;;18.23;78.98
23635;BME280;11994;51.038;16.974;2023-07-28T02:25:26;99077.08;;;18.21;78.79
23635;BME280;11994;51.038;16.974;2023-07-28T02:27:52;99077.70;;;18.20;78.92
23635;BME280;11994;51.038;16.974;2023-07-28T02:30:17;99073.57;;;18.23;79.08
23635;BME280;11994;51.038;16.974;2023-07-28T02:32:42;99073.05;;;18.27;79.27
23635;BME280;11994;51.038;16.974;2023-07-28T02:35:08;99077.31;;;18.30;79.28
23635;BME280;11994;51.038;16.974;2023-07-28T02:37:33;99081.27;;;18.32;79.53
23635;BME280;11994;51.038;16.974;2023-07-28T02:39:59;99084.31;;;18.34;79.44
23635;BME280;11994;51.038;16.974;2023-07-28T02:42:24;99087.59;;;18.33;79.48
23635;BME280;11994;51.038;16.974;2023-07-28T02:44:50;99083.61;;;18.31;79.60
23635;BME280;11994;51.038;16.974;2023-07-28T02:47:16;99082.42;;;18.33;79.63
23635;BME280;11994;51.038;16.974;2023-07-28T02:49:41;99075.73;;;18.33;79.64
23635;BME280;11994;51.038;16.974;2023-07-28T02:52:08;99071.81;;;18.35;79.92
23635;BME280;11994;51.038;16.974;2023-07-28T02:54:33;99068.16;;;18.34;79.68
23635;BME280;11994;51.038;16.974;2023-07-28T02:56:59;99066.27;;;18.36;79.95
23635;BME280;11994;51.038;16.974;2023-07-28T02:59:24;99062.17;;;18.41;80.00
23635;BME280;11994;51.038;16.974;2023-07-28T03:01:49;99068.28;;;18.42;79.91
23635;BME280;11994;51.038;16.974;2023-07-28T03:04:18;99073.64;;;18.46;79.97
23635;BME280;11994;51.038;16.974;2023-07-28T03:06:47;99076.03;;;18.50;80.02
23635;BME280;11994;51.038;16.974;2023-07-28T03:09:12;99076.33;;;18.51;80.14
23635;BME280;11994;51.038;16.974;2023-07-28T03:11:38;99081.52;;;18.55;80.16
23635;BME280;11994;51.038;16.974;2023-07-28T03:14:04;99084.73;;;18.56;80.07
23635;BME280;11994;51.038;16.974;2023-07-28T03:16:29;99086.30;;;18.57;80.02
23635;BME280;11994;51.038;16.974;2023-07-28T03:18:54;99090.07;;;18.54;79.99
23635;BME280;11994;51.038;16.974;2023-07-28T03:21:20;99093.69;;;18.53;80.18
23635;BME280;11994;51.038;16.974;2023-07-28T03:23:45;99092.20;;;18.51;80.44
23635;BME280;11994;51.038;16.974;2023-07-28T03:26:10;99088.91;;;18.46;80.62
23635;BME280;11994;51.038;16.974;2023-07-28T03:28:36;99084.55;;;18.45;80.89
23635;BME280;11994;51.038;16.974;2023-07-28T03:31:01;99093.27;;;18.46;80.95
23635;BME280;11994;51.038;16.974;2023-07-28T03:33:26;99093.92;;;18.48;81.03
23635;BME280;11994;51.038;16.974;2023-07-28T03:35:52;99087.74;;;18.47;80.90
23635;BME280;11994;51.038;16.974;2023-07-28T03:38:17;99087.68;;;18.43;80.95
23635;BME280;11994;51.038;16.974;2023-07-28T03:40:44;99085.76;;;18.43;81.07
23635;BME280;11994;51.038;16.974;2023-07-28T03:43:09;99082.89;;;18.43;81.23
23635;BME280;11994;51.038;16.974;2023-07-28T03:45:35;99073.64;;;18.44;81.18
23635;BME280;11994;51.038;16.974;2023-07-28T03:48:00;99075.40;;;18.44;81.08
23635;BME280;11994;51.038;16.974;2023-07-28T03:50:26;99070.70;;;18.45;81.13
23635;BME280;11994;51.038;16.974;2023-07-28T03:52:53;99067.73;;;18.45;80.90
23635;BME280;11994;51.038;16.974;2023-07-28T03:55:19;99066.61;;;18.43;80.94
23635;BME280;11994;51.038;16.974;2023-07-28T03:57:45;99065.89;;;18.46;80.94
23635;BME280;11994;51.038;16.974;2023-07-28T04:00:11;99065.55;;;18.46;80.91
23635;BME280;11994;51.038;16.974;2023-07-28T04:02:36;99070.70;;;18.43;80.92
23635;BME280;11994;51.038;16.974;2023-07-28T04:05:02;99069.65;;;18.41;80.97
23635;BME280;11994;51.038;16.974;2023-07-28T04:07:27;99064.83;;;18.39;81.13
23635;BME280;11994;51.038;16.974;2023-07-28T04:09:52;99062.61;;;18.40;81.30
23635;BME280;11994;51.038;16.974;2023-07-28T04:12:18;99061.11;;;18.43;81.42
23635;BME280;11994;51.038;16.974;2023-07-28T04:14:43;99059.63;;;18.44;81.35
23635;BME280;11994;51.038;16.974;2023-07-28T04:17:08;99050.07;;;18.42;81.51
23635;BME280;11994;51.038;16.974;2023-07-28T04:19:34;99046.86;;;18.40;81.54
23635;BME280;11994;51.038;16.974;2023-07-28T04:22:00;99044.04;;;18.37;81.68
23635;BME280;11994;51.038;16.974;2023-07-28T04:24:26;99043.52;;;18.39;81.89
23635;BME280;11994;51.038;16.974;2023-07-28T04:26:51;99035.83;;;18.45;81.95
23635;BME280;11994;51.038;16.974;2023-07-28T04:29:17;99041.34;;;18.50;81.98
23635;BME280;11994;51.038;16.974;2023-07-28T04:31:42;99039.37;;;18.50;82.05
23635;BME280;11994;51.038;16.974;2023-07-28T04:34:08;99041.40;;;18.51;82.08
23635;BME280;11994;51.038;16.974;2023-07-28T04:36:33;99034.80;;;18.56;82.31
23635;BME280;11994;51.038;16.974;2023-07-28T04:38:59;99033.04;;;18.63;82.09
23635;BME280;11994;51.038;16.974;2023-07-28T04:41:24;99037.61;;;18.63;81.98
23635;BME280;11994;51.038;16.974;2023-07-28T04:43:50;99042.19;;;18.64;82.06
23635;BME280;11994;51.038;16.974;2023-07-28T04:46:15;99041.70;;;18.64;81.94
23635;BME280;11994;51.038;16.974;2023-07-28T04:48:40;99040.52;;;18.65;81.97
23635;BME280;11994;51.038;16.974;2023-07-28T04:51:06;99043.81;;;18.68;82.06
23635;BME280;11994;51.038;16.974;2023-07-28T04:53:31;99043.60;;;18.69;81.74
23635;BME280;11994;51.038;16.974;2023-07-28T04:55:57;99044.66;;;18.69;81.95
23635;BME280;11994;51.038;16.974;2023-07-28T05:01:50;99054.37;;;18.83;82.06
23635;BME280;11994;51.038;16.974;2023-07-28T05:04:16;99057.39;;;18.85;82.14
23635;BME280;11994;51.038;16.974;2023-07-28T05:06:41;99059.08;;;18.86;82.28
23635;BME280;11994;51.038;16.974;2023-07-28T05:09:06;99056.73;;;18.89;82.52
23635;BME280;11994;51.038;16.974;2023-07-28T05:11:32;99057.44;;;18.87;82.59
23635;BME280;11994;51.038;16.974;2023-07-28T05:13:57;99060.98;;;18.84;83.11
23635;BME280;11994;51.038;16.974;2023-07-28T05:16:22;99061.73;;;18.84;83.22
23635;BME280;11994;51.038;16.974;2023-07-28T05:18:48;99061.67;;;18.83;83.66
23635;BME280;11994;51.038;16.974;2023-07-28T05:21:13;99060.17;;;18.79;83.90
23635;BME280;11994;51.038;16.974;2023-07-28T05:23:39;99059.66;;;18.79;84.13
23635;BME280;11994;51.038;16.974;2023-07-28T05:26:04;99057.61;;;18.78;84.29
23635;BME280;11994;51.038;16.974;2023-07-28T05:28:34;99058.42;;;18.76;84.59
23635;BME280;11994;51.038;16.974;2023-07-28T05:31:05;99056.26;;;18.77;84.95
23635;BME280;11994;51.038;16.974;2023-07-28T05:33:31;99057.34;;;18.77;85.02
23635;BME280;11994;51.038;16.974;2023-07-28T05:36:03;99055.83;;;18.73;84.86
23635;BME280;11994;51.038;16.974;2023-07-28T05:38:29;99048.23;;;18.71;84.69
23635;BME280;11994;51.038;16.974;2023-07-28T05:41:01;99048.73;;;18.71;84.81
23635;BME280;11994;51.038;16.974;2023-07-28T05:43:29;99048.39;;;18.71;85.15
23635;BME280;11994;51.038;16.974;2023-07-28T05:45:56;99053.62;;;18.72;84.99
23635;BME280;11994;51.038;16.974;2023-07-28T05:48:21;99051.41;;;18.73;85.26
23635;BME280;11994;51.038;16.974;2023-07-28T05:50:47;99056.23;;;18.73;85.31
23635;BME280;11994;51.038;16.974;2023-07-28T05:53:13;99051.33;;;18.74;85.42
23635;BME280;11994;51.038;16.974;2023-07-28T05:55:39;99050.34;;;18.75;85.41
23635;BME280;11994;51.038;16.974;2023-07-28T05:58:04;99056.12;;;18.74;85.50
23635;BME280;11994;51.038;16.974;2023-07-28T06:00:30;99060.13;;;18.75;85.77
23635;BME280;11994;51.038;16.974;2023-07-28T06:02:57;99065.29;;;18.80;85.78
23635;BME280;11994;51.038;16.974;2023-07-28T06:05:22;99062.79;;;18.80;86.03
23635;BME280;11994;51.038;16.974;2023-07-28T06:07:48;99062.55;;;18.85;86.25
23635;BME280;11994;51.038;16.974;2023-07-28T06:10:13;99061.46;;;18.90;86.54
23635;BME280;11994;51.038;16.974;2023-07-28T06:12:39;99059.55;;;18.94;86.66
23635;BME280;11994;51.038;16.974;2023-07-28T06:15:05;99058.55;;;18.98;86.61
23635;BME280;11994;51.038;16.974;2023-07-28T06:17:31;99058.95;;;19.02;86.52
23635;BME280;11994;51.038;16.974;2023-07-28T06:19:56;99059.90;;;19.06;86.47
23635;BME280;11994;51.038;16.974;2023-07-28T06:22:21;99059.42;;;19.12;86.43
23635;BME280;11994;51.038;16.974;2023-07-28T06:24:48;99064.27;;;19.15;86.50
23635;BME280;11994;51.038;16.974;2023-07-28T06:27:13;99061.85;;;19.19;86.56
23635;BME280;11994;51.038;16.974;2023-07-28T06:29:39;99059.83;;;19.23;86.54
23635;BME280;11994;51.038;16.974;2023-07-28T06:32:04;99060.17;;;19.23;86.20
23635;BME280;11994;51.038;16.974;2023-07-28T06:34:31;99060.05;;;19.22;86.19
23635;BME280;11994;51.038;16.974;2023-07-28T06:36:56;99066.63;;;19.22;86.07
23635;BME280;11994;51.038;16.974;2023-07-28T06:39:22;99074.80;;;19.24;86.37
23635;BME280;11994;51.038;16.974;2023-07-28T06:41:49;99072.91;;;19.28;86.58
23635;BME280;11994;51.038;16.974;2023-07-28T06:44:15;99072.70;;;19.31;86.28
23635;BME280;11994;51.038;16.974;2023-07-28T06:46:40;99073.36;;;19.31;86.34
23635;BME280;11994;51.038;16.974;2023-07-28T06:49:06;99067.29;;;19.34;86.59
23635;BME280;11994;51.038;16.974;2023-07-28T06:51:31;99071.89;;;19.41;86.66
23635;BME280;11994;51.038;16.974;2023-07-28T06:53:57;99073.88;;;19.47;86.61
23635;BME280;11994;51.038;16.974;2023-07-28T07:06:51;99073.73;;;19.60;86.36
23635;BME280;11994;51.038;16.974;2023-07-28T07:09:17;99077.63;;;19.67;86.59
23635;BME280;11994;51.038;16.974;2023-07-28T07:11:42;99071.34;;;19.72;86.61
23635;BME280;11994;51.038;16.974;2023-07-28T07:14:07;99081.23;;;19.75;86.59
23635;BME280;11994;51.038;16.974;2023-07-28T07:16:34;99086.85;;;19.78;86.70
23635;BME280;11994;51.038;16.974;2023-07-28T07:18:59;99094.93;;;19.83;86.88
23635;BME280;11994;51.038;16.974;2023-07-28T07:21:25;99090.36;;;19.90;86.90
23635;BME280;11994;51.038;16.974;2023-07-28T07:23:51;99087.70;;;19.94;87.15
23635;BME280;11994;51.038;16.974;2023-07-28T07:26:17;99091.23;;;19.99;87.12
23635;BME280;11994;51.038;16.974;2023-07-28T07:28:42;99096.13;;;20.04;87.28
23635;BME280;11994;51.038;16.974;2023-07-28T07:31:14;99098.16;;;20.10;87.14
23635;BME280;11994;51.038;16.974;2023-07-28T07:33:40;99101.58;;;20.16;86.73
23635;BME280;11994;51.038;16.974;2023-07-28T07:36:14;99096.58;;;20.18;86.63
23635;BME280;11994;51.038;16.974;2023-07-28T07:38:40;99104.93;;;20.18;86.35
23635;BME280;11994;51.038;16.974;2023-07-28T07:41:07;99102.14;;;20.17;86.06
23635;BME280;11994;51.038;16.974;2023-07-28T07:43:33;99104.91;;;20.16;86.04
23635;BME280;11994;51.038;16.974;2023-07-28T07:45:59;99108.27;;;20.21;86.07
23635;BME280;11994;51.038;16.974;2023-07-28T07:48:24;99109.75;;;20.27;86.04
23635;BME280;11994;51.038;16.974;2023-07-28T07:50:51;99112.75;;;20.29;85.83
23635;BME280;11994;51.038;16.974;2023-07-28T07:53:17;99114.13;;;20.32;85.99
23635;BME280;11994;51.038;16.974;2023-07-28T07:55:42;99117.53;;;20.36;86.14
23635;BME280;11994;51.038;16.974;2023-07-28T07:58:08;99119.76;;;20.41;86.07
23635;BME280;11994;51.038;16.974;2023-07-28T08:00:33;99120.77;;;20.46;86.14
23635;BME280;11994;51.038;16.974;2023-07-28T08:02:59;99116.17;;;20.50;85.88
23635;BME280;11994;51.038;16.974;2023-07-28T08:05:24;99111.80;;;20.51;85.74
23635;BME280;11994;51.038;16.974;2023-07-28T08:07:50;99112.53;;;20.53;85.58
23635;BME280;11994;51.038;16.974;2023-07-28T08:10:16;99117.27;;;20.56;85.58
23635;BME280;11994;51.038;16.974;2023-07-28T08:12:43;99116.27;;;20.55;85.23
23635;BME280;11994;51.038;16.974;2023-07-28T08:15:10;99115.30;;;20.50;84.95
23635;BME280;11994;51.038;16.974;2023-07-28T08:17:35;99123.14;;;20.47;84.82
23635;BME280;11994;51.038;16.974;2023-07-28T08:20:01;99121.44;;;20.46;84.89
23635;BME280;11994;51.038;16.974;2023-07-28T08:22:26;99125.46;;;20.45;85.13
23635;BME280;11994;51.038;16.974;2023-07-28T08:24:52;99129.08;;;20.42;84.70
23635;BME280;11994;51.038;16.974;2023-07-28T08:27:17;99128.70;;;20.43;84.85
23635;BME280;11994;51.038;16.974;2023-07-28T08:29:43;99130.95;;;20.43;85.22
23635;BME280;11994;51.038;16.974;2023-07-28T08:32:08;99123.44;;;20.42;84.97
23635;BME280;11994;51.038;16.974;2023-07-28T08:34:34;99125.15;;;20.42;85.15
23635;BME280;11994;51.038;16.974;2023-07-28T08:36:59;99124.19;;;20.46;84.99
23635;BME280;11994;51.038;16.974;2023-07-28T08:39:25;99123.98;;;20.52;85.20
23635;BME280;11994;51.038;16.974;2023-07-28T08:42:00;99127.82;;;20.55;84.62
23635;BME280;11994;51.038;16.974;2023-07-28T08:44:30;99129.27;;;20.57;84.52
23635;BME280;11994;51.038;16.974;2023-07-28T08:46:55;99133.95;;;20.59;84.47
23635;BME280;11994;51.038;16.974;2023-07-28T08:49:21;99134.33;;;20.58;84.42
23635;BME280;11994;51.038;16.974;2023-07-28T08:51:50;99134.35;;;20.58;84.61
23635;BME280;11994;51.038;16.974;2023-07-28T08:54:15;99133.60;;;20.61;84.66
23635;BME280;11994;51.038;16.974;2023-07-28T08:56:43;99133.50;;;20.62;84.65
23635;BME280;11994;51.038;16.974;2023-07-28T08:59:09;99138.14;;;20.66;84.58
23635;BME280;11994;51.038;16.974;2023-07-28T09:01:39;99141.58;;;20.72;84.81
23635;BME280;11994;51.038;16.974;2023-07-28T09:04:09;99144.56;;;20.78;84.77
23635;BME280;11994;51.038;16.974;2023-07-28T09:06:35;99139.75;;;20.83;84.64
23635;BME280;11994;51.038;16.974;2023-07-28T09:09:01;99136.67;;;20.88;84.23
23635;BME280;11994;51.038;16.974;2023-07-28T09:11:27;99133.52;;;20.94;83.79
23635;BME280;11994;51.038;16.974;2023-07-28T09:13:54;99130.96;;;21.01;83.61
23635;BME280;11994;51.038;16.974;2023-07-28T09:16:21;99131.73;;;21.09;83.40
23635;BME280;11994;51.038;16.974;2023-07-28T09:18:49;99135.06;;;21.17;83.88
23635;BME280;11994;51.038;16.974;2023-07-28T09:21:21;99136.23;;;21.23;83.62
23635;BME280;11994;51.038;16.974;2023-07-28T09:23:47;99139.11;;;21.20;83.29
23635;BME280;11994;51.038;16.974;2023-07-28T09:26:16;99139.44;;;21.25;83.62
23635;BME280;11994;51.038;16.974;2023-07-28T09:28:42;99140.23;;;21.32;83.80
23635;BME280;11994;51.038;16.974;2023-07-28T09:31:08;99137.04;;;21.36;83.10
23635;BME280;11994;51.038;16.974;2023-07-28T09:33:34;99136.14;;;21.44;83.33
23635;BME280;11994;51.038;16.974;2023-07-28T09:36:14;99129.27;;;21.58;83.56
23635;BME280;11994;51.038;16.974;2023-07-28T09:38:42;99126.53;;;21.77;82.88
23635;BME280;11994;51.038;16.974;2023-07-28T09:41:10;99117.13;;;21.91;83.12
23635;BME280;11994;51.038;16.974;2023-07-28T09:43:40;99118.33;;;22.08;82.67
23635;BME280;11994;51.038;16.974;2023-07-28T09:46:09;99129.23;;;22.19;81.90
23635;BME280;11994;51.038;16.974;2023-07-28T09:48:38;99118.73;;;22.27;81.57
23635;BME280;11994;51.038;16.974;2023-07-28T09:51:12;99124.34;;;22.34;80.64
23635;BME280;11994;51.038;16.974;2023-07-28T09:53:48;99118.13;;;22.39;79.61
23635;BME280;11994;51.038;16.974;2023-07-28T09:56:15;99121.20;;;22.45;78.82
23635;BME280;11994;51.038;16.974;2023-07-28T09:58:51;99126.86;;;22.49;77.59
23635;BME280;11994;51.038;16.974;2023-07-28T10:01:21;99120.29;;;22.51;77.76
23635;BME280;11994;51.038;16.974;2023-07-28T10:03:50;99116.56;;;22.55;77.69
23635;BME280;11994;51.038;16.974;2023-07-28T10:06:17;99117.01;;;22.58;76.65
23635;BME280;11994;51.038;16.974;2023-07-28T10:08:43;99116.27;;;22.58;76.20
23635;BME280;11994;51.038;16.974;2023-07-28T10:11:14;99121.60;;;22.60;76.04
23635;BME280;11994;51.038;16.974;2023-07-28T10:13:44;99123.45;;;22.59;75.41
23635;BME280;11994;51.038;16.974;2023-07-28T10:16:12;99122.75;;;22.58;75.93
23635;BME280;11994;51.038;16.974;2023-07-28T10:18:41;99119.30;;;22.56;75.89
23635;BME280;11994;51.038;16.974;2023-07-28T10:21:09;99119.16;;;22.58;75.70
23635;BME280;11994;51.038;16.974;2023-07-28T10:23:38;99126.05;;;22.64;76.14
23635;BME280;11994;51.038;16.974;2023-07-28T10:26:05;99126.80;;;22.72;76.26
23635;BME280;11994;51.038;16.974;2023-07-28T10:28:40;99127.29;;;22.78;76.42
23635;BME280;11994;51.038;16.974;2023-07-28T10:31:10;99125.86;;;22.84;76.10
23635;BME280;11994;51.038;16.974;2023-07-28T10:33:40;99123.19;;;22.91;75.89
23635;BME280;11994;51.038;16.974;2023-07-28T10:38:41;99130.08;;;23.09;75.27
23635;BME280;11994;51.038;16.974;2023-07-28T10:41:17;99129.20;;;23.15;74.67
23635;BME280;11994;51.038;16.974;2023-07-28T10:53:56;99126.55;;;23.49;71.48
23635;BME280;11994;51.038;16.974;2023-07-28T10:56:23;99125.30;;;23.62;71.00
23635;BME280;11994;51.038;16.974;2023-07-28T10:59:02;99128.13;;;23.79;71.26
23635;BME280;11994;51.038;16.974;2023-07-28T11:01:32;99122.11;;;23.90;69.43
23635;BME280;11994;51.038;16.974;2023-07-28T11:04:10;99123.24;;;23.89;69.34
23635;BME280;11994;51.038;16.974;2023-07-28T11:06:37;99122.45;;;23.88;68.67
23635;BME280;11994;51.038;16.974;2023-07-28T11:09:06;99123.23;;;23.93;68.72
23635;BME280;11994;51.038;16.974;2023-07-28T11:11:31;99114.09;;;24.04;68.98
23635;BME280;11994;51.038;16.974;2023-07-28T11:13:58;99108.60;;;24.11;68.77
23635;BME280;11994;51.038;16.974;2023-07-28T11:16:23;99107.13;;;24.17;68.32
23635;BME280;11994;51.038;16.974;2023-07-28T11:18:49;99111.25;;;24.22;67.29
23635;BME280;11994;51.038;16.974;2023-07-28T11:21:17;99111.21;;;24.26;66.82
23635;BME280;11994;51.038;16.974;2023-07-28T11:23:45;99112.61;;;24.28;65.69
23635;BME280;11994;51.038;16.974;2023-07-28T11:26:11;99115.73;;;24.31;65.15
23635;BME280;11994;51.038;16.974;2023-07-28T11:28:38;99112.96;;;24.32;65.01
23635;BME280;11994;51.038;16.974;2023-07-28T11:31:04;99110.96;;;24.31;64.53
23635;BME280;11994;51.038;16.974;2023-07-28T11:33:29;99111.77;;;24.30;65.11
23635;BME280;11994;51.038;16.974;2023-07-28T11:35:54;99109.46;;;24.39;65.08
23635;BME280;11994;51.038;16.974;2023-07-28T11:38:20;99111.85;;;24.47;65.11
23635;BME280;11994;51.038;16.974;2023-07-28T11:40:46;99105.68;;;24.53;64.54
23635;BME280;11994;51.038;16.974;2023-07-28T11:43:11;99104.73;;;24.59;65.10
23635;BME280;11994;51.038;16.974;2023-07-28T11:45:37;99106.44;;;24.62;64.75
23635;BME280;11994;51.038;16.974;2023-07-28T11:48:06;99108.98;;;24.58;64.10
23635;BME280;11994;51.038;16.974;2023-07-28T11:50:39;99107.27;;;24.55;64.32
23635;BME280;11994;51.038;16.974;2023-07-28T11:53:06;99108.73;;;24.66;64.47
23635;BME280;11994;51.038;16.974;2023-07-28T11:55:34;99106.09;;;24.78;63.82
23635;BME280;11994;51.038;16.974;2023-07-28T11:58:00;99106.33;;;24.88;62.85
23635;BME280;11994;51.038;16.974;2023-07-28T12:00:35;99101.27;;;24.99;63.30
23635;BME280;11994;51.038;16.974;2023-07-28T12:03:08;99102.27;;;25.13;62.76
23635;BME280;11994;51.038;16.974;2023-07-28T12:05:41;99103.49;;;25.26;62.69
23635;BME280;11994;51.038;16.974;2023-07-28T12:08:36;99105.63;;;25.39;61.50
23635;BME280;11994;51.038;16.974;2023-07-28T12:11:02;99093.46;;;25.47;60.46
23635;BME280;11994;51.038;16.974;2023-07-28T12:13:27;99092.48;;;25.55;59.80
23635;BME280;11994;51.038;16.974;2023-07-28T12:15:54;99091.66;;;25.63;58.86
23635;BME280;11994;51.038;16.974;2023-07-28T12:18:19;99097.29;;;25.74;58.41
23635;BME280;11994;51.038;16.974;2023-07-28T12:20:47;99097.34;;;25.77;57.78
23635;BME280;11994;51.038;16.974;2023-07-28T12:23:17;99100.67;;;25.82;57.62
23635;BME280;11994;51.038;16.974;2023-07-28T12:25:43;99098.45;;;25.95;57.18
23635;BME280;11994;51.038;16.974;2023-07-28T12:28:09;99099.77;;;26.08;57.49
23635;BME280;11994;51.038;16.974;2023-07-28T12:30:36;99101.03;;;26.20;57.76
23635;BME280;11994;51.038;16.974;2023-07-28T12:33:02;99102.61;;;26.32;57.39
23635;BME280;11994;51.038;16.974;2023-07-28T12:35:30;99106.98;;;26.38;56.67
23635;BME280;11994;51.038;16.974;2023-07-28T12:38:04;99104.92;;;26.36;56.06
23635;BME280;11994;51.038;16.974;2023-07-28T12:40:31;99107.84;;;26.27;55.43
23635;BME280;11994;51.038;16.974;2023-07-28T12:42:58;99103.69;;;26.17;56.48
23635;BME280;11994;51.038;16.974;2023-07-28T12:45:24;99102.08;;;26.17;56.66
23635;BME280;11994;51.038;16.974;2023-07-28T12:47:54;99103.58;;;26.21;56.12
23635;BME280;11994;51.038;16.974;2023-07-28T12:50:23;99106.85;;;26.22;55.80
23635;BME280;11994;51.038;16.974;2023-07-28T12:52:50;99114.53;;;26.21;54.91
23635;BME280;11994;51.038;16.974;2023-07-28T12:55:16;99118.32;;;26.06;54.98
23635;BME280;11994;51.038;16.974;2023-07-28T12:57:41;99116.27;;;26.01;56.16
23635;BME280;11994;51.038;16.974;2023-07-28T13:00:08;99113.11;;;26.13;56.80
23635;BME280;11994;51.038;16.974;2023-07-28T13:02:41;99107.48;;;26.23;56.51
23635;BME280;11994;51.038;16.974;2023-07-28T13:05:09;99104.92;;;26.29;55.83
23635;BME280;11994;51.038;16.974;2023-07-28T13:07:36;99103.41;;;26.38;55.93
23635;BME280;11994;51.038;16.974;2023-07-28T13:10:01;99110.07;;;26.47;54.43
23635;BME280;11994;51.038;16.974;2023-07-28T13:12:28;99110.41;;;26.49;54.05
23635;BME280;11994;51.038;16.974;2023-07-28T13:14:54;99104.96;;;26.53;53.99
23635;BME280;11994;51.038;16.974;2023-07-28T13:17:19;99107.88;;;26.62;54.65